createdAt,value
2019-03-30T00:00:00.154Z,53.80
2019-03-30T00:02:30.869Z,61.33
2019-03-30T00:05:02.514Z,41.33
2019-03-30T00:07:33.323Z,35.40
2019-03-30T00:10:03.298Z,36.80
2019-03-30T00:12:35.585Z,33.30
2019-03-30T00:15:05.669Z,27.93
2019-03-30T00:17:35.879Z,26.40
2019-03-30T00:20:06.170Z,26.60
2019-03-30T00:22:37.080Z,26.05
2019-03-30T00:25:07.469Z,24.83
2019-03-30T00:27:37.836Z,25.60
2019-03-30T00:30:09.241Z,27.00
2019-03-30T00:32:41.298Z,31.33
2019-03-30T00:35:12.166Z,31.63
2019-03-30T00:37:46.500Z,27.67
2019-03-30T00:40:17.956Z,25.05
2019-03-30T00:42:49.639Z,25.10
2019-03-30T00:45:20.179Z,25.37
2019-03-30T00:47:50.710Z,24.40
2019-03-30T00:50:20.755Z,22.32
2019-03-30T00:52:51.427Z,22.80
2019-03-30T00:55:21.366Z,22.77
2019-03-30T00:57:51.297Z,24.63
2019-03-30T01:00:21.852Z,23.13
2019-03-30T01:02:52.799Z,23.03
2019-03-30T01:05:24.259Z,24.70
2019-03-30T01:07:55.578Z,23.83
2019-03-30T01:10:25.465Z,24.70
2019-03-30T01:12:56.000Z,23.80
2019-03-30T01:15:25.949Z,22.60
2019-03-30T01:17:57.456Z,24.70
2019-03-30T01:20:27.793Z,23.32
2019-03-30T01:22:58.526Z,22.87
2019-03-30T01:25:29.301Z,22.98
2019-03-30T01:27:59.214Z,23.53
2019-03-30T01:30:29.284Z,23.17
2019-03-30T01:32:59.705Z,25.20
2019-03-30T01:35:30.430Z,24.87
2019-03-30T01:38:01.781Z,23.57
2019-03-30T01:40:31.709Z,24.75
2019-03-30T01:43:02.169Z,25.27
2019-03-30T01:45:32.081Z,24.10
2019-03-30T01:48:02.361Z,24.23
2019-03-30T01:50:33.582Z,24.57
2019-03-30T01:53:04.810Z,22.73
2019-03-30T01:55:38.716Z,22.62
2019-03-30T01:58:09.643Z,24.32
2019-03-30T02:00:40.104Z,21.77
2019-03-30T02:03:11.518Z,22.27
2019-03-30T02:05:42.651Z,25.17
2019-03-30T02:08:13.005Z,22.77
2019-03-30T02:10:46.974Z,24.40
2019-03-30T02:13:18.612Z,25.52
2019-03-30T02:15:51.848Z,23.00
2019-03-30T02:18:23.341Z,23.50
2019-03-30T02:20:54.356Z,22.77
2019-03-30T02:23:26.604Z,24.37
2019-03-30T02:25:57.735Z,25.70
2019-03-30T02:28:28.204Z,27.07
2019-03-30T02:30:58.141Z,26.43
2019-03-30T02:33:32.617Z,25.67
2019-03-30T02:36:00.446Z,26.33
2019-03-30T02:38:33.025Z,32.70
2019-03-30T02:41:03.351Z,33.63
2019-03-30T02:43:33.268Z,27.57
2019-03-30T02:46:03.629Z,25.90
2019-03-30T02:48:35.812Z,24.20
2019-03-30T02:51:06.438Z,23.27
2019-03-30T02:53:37.389Z,29.13
2019-03-30T02:56:07.301Z,33.47
2019-03-30T02:58:37.250Z,27.10
2019-03-30T03:01:07.202Z,25.23
2019-03-30T03:03:37.401Z,31.30
2019-03-30T03:06:07.312Z,24.70
2019-03-30T03:08:37.228Z,23.70
2019-03-30T03:11:07.201Z,24.83
2019-03-30T03:13:37.370Z,24.50
2019-03-30T03:16:07.261Z,25.13
2019-03-30T03:18:37.220Z,26.70
2019-03-30T03:21:08.783Z,24.30
2019-03-30T03:23:39.021Z,22.50
2019-03-30T03:26:09.357Z,24.80
2019-03-30T03:28:40.367Z,28.37
2019-03-30T03:31:10.773Z,27.17
2019-03-30T03:33:43.287Z,23.13
2019-03-30T03:36:14.308Z,24.97
2019-03-30T03:38:44.671Z,22.63
2019-03-30T03:41:15.200Z,21.87
2019-03-30T03:43:47.190Z,22.37
2019-03-30T03:46:18.930Z,22.52
2019-03-30T03:48:48.889Z,24.73
2019-03-30T03:51:26.013Z,22.73
2019-03-30T03:53:52.749Z,23.92
2019-03-30T03:56:25.392Z,22.02
2019-03-30T03:58:57.994Z,23.27
2019-03-30T04:01:30.715Z,22.35
2019-03-30T04:04:02.917Z,23.98
2019-03-30T04:06:34.415Z,22.70
2019-03-30T04:09:06.911Z,22.67
2019-03-30T04:11:42.003Z,23.03
2019-03-30T04:14:14.725Z,21.37
2019-03-30T04:16:44.926Z,21.62
2019-03-30T04:19:16.053Z,21.67
2019-03-30T04:21:46.836Z,19.80
2019-03-30T04:24:18.286Z,21.67
2019-03-30T04:26:49.408Z,21.13
2019-03-30T04:29:19.360Z,22.63
2019-03-30T04:31:49.286Z,19.90
2019-03-30T04:34:19.246Z,20.60
2019-03-30T04:36:49.631Z,20.70
2019-03-30T04:39:20.718Z,20.03
2019-03-30T04:41:51.813Z,20.85
2019-03-30T04:44:22.337Z,20.82
2019-03-30T04:46:53.068Z,20.63
2019-03-30T04:49:23.041Z,18.70
2019-03-30T04:51:57.696Z,20.00
2019-03-30T04:54:25.421Z,20.30
2019-03-30T04:56:56.720Z,21.20
2019-03-30T04:59:31.709Z,25.37
2019-03-30T05:02:01.598Z,23.20
2019-03-30T05:04:31.577Z,21.27
2019-03-30T05:07:01.721Z,20.33
2019-03-30T05:09:31.649Z,21.23
2019-03-30T05:12:02.831Z,19.73
2019-03-30T05:14:32.764Z,20.13
2019-03-30T05:17:02.722Z,20.00
2019-03-30T05:19:32.809Z,20.43
2019-03-30T05:22:12.179Z,19.33
2019-03-30T05:24:35.289Z,19.40
2019-03-30T05:27:05.574Z,17.50
2019-03-30T05:29:35.804Z,18.00
2019-03-30T05:32:05.968Z,19.70
2019-03-30T05:34:36.338Z,20.07
2019-03-30T05:37:07.846Z,19.20
2019-03-30T05:39:37.837Z,18.33
2019-03-30T05:42:09.426Z,20.23
2019-03-30T05:44:39.794Z,18.90
2019-03-30T05:47:10.064Z,19.97
2019-03-30T05:49:40.319Z,19.47
2019-03-30T05:52:25.521Z,18.40
2019-03-30T05:54:44.392Z,17.40
2019-03-30T05:57:16.035Z,17.87
2019-03-30T05:59:46.495Z,16.90
2019-03-30T06:02:19.187Z,16.87
2019-03-30T06:04:49.526Z,17.97
2019-03-30T06:07:20.060Z,17.20
2019-03-30T06:09:50.830Z,18.03
2019-03-30T06:12:21.296Z,17.07
2019-03-30T06:14:51.899Z,21.50
2019-03-30T06:17:22.350Z,19.07
2019-03-30T06:19:52.895Z,17.60
2019-03-30T06:22:39.483Z,17.40
2019-03-30T06:24:59.169Z,15.73
2019-03-30T06:27:33.040Z,16.97
2019-03-30T06:30:21.685Z,17.37
2019-03-30T06:32:53.757Z,15.75
2019-03-30T06:35:25.087Z,17.02
2019-03-30T06:37:55.431Z,16.10
2019-03-30T06:40:26.925Z,17.00
2019-03-30T06:42:56.793Z,16.70
2019-03-30T06:45:28.380Z,16.00
2019-03-30T06:47:59.492Z,16.43
2019-03-30T06:50:31.794Z,16.00
2019-03-30T06:53:03.312Z,15.80
2019-03-30T06:55:34.239Z,16.80
2019-03-30T06:58:04.798Z,17.07
2019-03-30T07:00:35.840Z,17.62
2019-03-30T07:03:07.272Z,15.77
2019-03-30T07:05:42.313Z,14.90
2019-03-30T07:08:19.012Z,14.90
2019-03-30T07:10:50.509Z,13.37
2019-03-30T07:13:21.866Z,12.70
2019-03-30T07:15:57.781Z,12.83
2019-03-30T07:18:29.581Z,11.88
2019-03-30T07:21:00.423Z,11.83
2019-03-30T07:23:31.553Z,12.07
2019-03-30T07:26:01.858Z,13.17
2019-03-30T07:28:33.876Z,11.73
2019-03-30T07:31:04.079Z,13.13
2019-03-30T07:33:35.422Z,11.83
2019-03-30T07:36:07.001Z,12.50
2019-03-30T07:38:39.991Z,11.80
2019-03-30T07:41:13.731Z,11.13
2019-03-30T07:43:43.920Z,10.57
2019-03-30T07:46:14.940Z,11.97
2019-03-30T07:48:48.638Z,12.20
2019-03-30T07:51:19.355Z,12.23
2019-03-30T07:53:50.078Z,13.27
2019-03-30T07:56:21.674Z,12.97
2019-03-30T07:58:52.465Z,12.60
2019-03-30T08:01:24.576Z,14.55
2019-03-30T08:03:56.314Z,14.13
2019-03-30T08:06:27.591Z,13.23
2019-03-30T08:08:58.850Z,15.60
2019-03-30T08:11:33.704Z,16.07
2019-03-30T08:14:04.829Z,17.50
2019-03-30T08:16:35.715Z,18.27
2019-03-30T08:19:07.149Z,17.13
2019-03-30T08:21:37.382Z,18.33
2019-03-30T08:24:08.584Z,18.70
2019-03-30T08:26:39.356Z,18.25
2019-03-30T08:29:13.722Z,19.37
2019-03-30T08:31:43.937Z,17.10
2019-03-30T08:34:16.458Z,17.33
2019-03-30T08:36:47.808Z,16.37
2019-03-30T08:39:20.403Z,16.80
2019-03-30T08:41:50.975Z,17.57
2019-03-30T08:44:22.439Z,17.13
2019-03-30T08:46:52.621Z,17.00
2019-03-30T08:49:23.548Z,16.53
2019-03-30T08:51:53.689Z,16.47
2019-03-30T08:54:23.628Z,15.93
2019-03-30T08:56:54.551Z,15.72
2019-03-30T08:59:26.792Z,16.73
2019-03-30T09:01:57.962Z,14.63
2019-03-30T09:04:29.025Z,17.03
2019-03-30T09:06:58.910Z,15.40
2019-03-30T09:09:29.473Z,15.50
2019-03-30T09:12:00.655Z,16.70
2019-03-30T09:14:30.511Z,17.03
2019-03-30T09:17:02.500Z,15.37
2019-03-30T09:19:32.960Z,17.37
2019-03-30T09:22:04.016Z,15.37
2019-03-30T09:24:34.779Z,15.80
2019-03-30T09:27:04.847Z,16.15
2019-03-30T09:29:34.870Z,15.53
2019-03-30T09:32:14.328Z,14.70
2019-03-30T09:34:37.490Z,16.97
2019-03-30T09:37:09.740Z,16.80
2019-03-30T09:39:40.993Z,16.70
2019-03-30T09:42:11.803Z,16.93
2019-03-30T09:44:44.106Z,18.03
2019-03-30T09:47:14.016Z,17.33
2019-03-30T09:49:44.051Z,16.67
2019-03-30T09:52:13.977Z,16.50
2019-03-30T09:54:44.010Z,15.70
2019-03-30T09:57:13.992Z,15.70
2019-03-30T09:59:44.149Z,17.87
2019-03-30T10:02:14.053Z,15.53
2019-03-30T10:04:44.602Z,16.70
2019-03-30T10:07:16.404Z,16.83
2019-03-30T10:09:47.445Z,17.23
2019-03-30T10:12:22.910Z,15.40
2019-03-30T10:14:53.805Z,17.60
2019-03-30T10:17:24.369Z,16.63
2019-03-30T10:20:04.269Z,17.50
2019-03-30T10:22:27.163Z,18.33
2019-03-30T10:24:58.521Z,18.90
2019-03-30T10:27:30.005Z,18.40
2019-03-30T10:29:59.868Z,18.80
2019-03-30T10:32:31.526Z,18.70
2019-03-30T10:35:02.562Z,19.07
2019-03-30T10:37:32.675Z,19.90
2019-03-30T10:40:01.761Z,19.70
2019-03-30T10:42:32.797Z,17.33
2019-03-30T10:45:02.933Z,17.57
2019-03-30T10:47:32.952Z,18.03
2019-03-30T10:50:02.962Z,18.97
2019-03-30T10:52:32.916Z,18.23
2019-03-30T10:55:03.097Z,18.53
2019-03-30T10:57:33.585Z,19.17
2019-03-30T11:00:05.051Z,19.90
2019-03-30T11:02:38.755Z,18.98
2019-03-30T11:05:09.740Z,19.10
2019-03-30T11:07:40.100Z,19.75
2019-03-30T11:10:09.993Z,18.67
2019-03-30T11:12:40.569Z,19.63
2019-03-30T11:15:11.154Z,20.33
2019-03-30T11:17:43.140Z,20.93
2019-03-30T11:20:13.721Z,19.63
2019-03-30T11:22:43.820Z,21.23
2019-03-30T11:25:14.524Z,20.82
2019-03-30T11:27:45.048Z,20.53
2019-03-30T11:30:15.912Z,21.50
2019-03-30T11:32:46.774Z,21.03
2019-03-30T11:35:17.744Z,20.48
2019-03-30T11:37:48.493Z,21.23
2019-03-30T11:40:19.190Z,19.47
2019-03-30T11:42:50.261Z,18.13
2019-03-30T11:45:20.522Z,19.82
2019-03-30T11:47:51.026Z,20.70
2019-03-30T11:50:21.143Z,21.73
2019-03-30T11:52:51.421Z,21.53
2019-03-30T11:55:22.478Z,22.77
2019-03-30T11:57:53.040Z,22.70
2019-03-30T12:00:23.248Z,22.60
2019-03-30T12:02:53.668Z,22.23
2019-03-30T12:05:24.031Z,22.42
2019-03-30T12:07:54.341Z,20.60
2019-03-30T12:10:25.952Z,19.73
2019-03-30T12:12:56.558Z,19.17
2019-03-30T12:15:26.657Z,20.90
2019-03-30T12:17:58.909Z,21.40
2019-03-30T12:20:30.175Z,23.53
2019-03-30T12:23:00.821Z,23.63
2019-03-30T12:25:35.841Z,23.50
2019-03-30T12:28:02.700Z,22.30
2019-03-30T12:30:32.779Z,21.90
2019-03-30T12:33:03.083Z,21.40
2019-03-30T12:35:33.410Z,21.07
2019-03-30T12:38:04.539Z,22.27
2019-03-30T12:40:34.618Z,19.40
2019-03-30T12:43:04.954Z,21.57
2019-03-30T12:45:35.108Z,20.70
2019-03-30T12:48:05.141Z,22.10
2019-03-30T12:50:35.195Z,19.77
2019-03-30T12:53:05.334Z,21.67
2019-03-30T12:55:48.311Z,21.42
2019-03-30T12:58:07.601Z,21.33
2019-03-30T13:00:37.684Z,20.57
2019-03-30T13:03:07.853Z,23.38
2019-03-30T13:05:38.424Z,21.37
2019-03-30T13:08:08.513Z,19.80
2019-03-30T13:10:38.517Z,20.17
2019-03-30T13:13:09.266Z,20.87
2019-03-30T13:15:39.462Z,20.17
2019-03-30T13:18:09.460Z,19.70
2019-03-30T13:20:39.811Z,21.00
2019-03-30T13:23:12.389Z,18.83
2019-03-30T13:25:42.309Z,19.80
2019-03-30T13:28:12.451Z,20.47
2019-03-30T13:30:42.401Z,22.03
2019-03-30T13:33:12.327Z,21.53
2019-03-30T13:35:42.985Z,20.83
2019-03-30T13:38:13.643Z,22.37
2019-03-30T13:40:46.287Z,21.10
2019-03-30T13:43:20.201Z,21.10
2019-03-30T13:45:51.022Z,21.50
2019-03-30T13:48:21.000Z,19.87
2019-03-30T13:50:51.018Z,21.67
2019-03-30T13:53:21.058Z,21.47
2019-03-30T13:55:51.114Z,21.73
2019-03-30T13:58:21.680Z,21.80
2019-03-30T14:00:51.625Z,21.20
2019-03-30T14:03:22.598Z,21.53
2019-03-30T14:05:53.296Z,20.33
2019-03-30T14:08:23.708Z,20.20
2019-03-30T14:10:53.682Z,22.07
2019-03-30T14:13:24.109Z,19.60
2019-03-30T14:15:54.322Z,22.73
2019-03-30T14:18:24.425Z,21.83
2019-03-30T14:20:54.834Z,20.97
2019-03-30T14:23:29.442Z,21.80
2019-03-30T14:26:02.807Z,22.20
2019-03-30T14:28:34.405Z,20.83
2019-03-30T14:31:12.058Z,21.07
2019-03-30T14:33:43.244Z,21.77
2019-03-30T14:36:14.072Z,20.63
2019-03-30T14:38:44.843Z,20.90
2019-03-30T14:41:16.576Z,20.60
2019-03-30T14:43:48.397Z,21.70
2019-03-30T14:46:18.580Z,22.40
2019-03-30T14:48:51.061Z,21.47
2019-03-30T14:51:22.766Z,20.67
2019-03-30T14:53:53.266Z,20.92
2019-03-30T14:56:23.391Z,22.23
2019-03-30T14:58:53.795Z,22.27
2019-03-30T15:01:26.882Z,22.43
2019-03-30T15:04:00.754Z,22.70
2019-03-30T15:06:31.020Z,22.00
2019-03-30T15:09:05.947Z,23.27
2019-03-30T15:11:38.026Z,21.03
2019-03-30T15:14:08.045Z,20.63
2019-03-30T15:16:37.960Z,20.00
2019-03-30T15:19:07.889Z,19.10
2019-03-30T15:21:37.850Z,20.10
2019-03-30T15:24:10.360Z,20.00
2019-03-30T15:26:40.221Z,19.83
2019-03-30T15:29:10.220Z,19.70
2019-03-30T15:31:40.281Z,20.23
2019-03-30T15:34:10.176Z,20.60
2019-03-30T15:36:40.801Z,18.97
2019-03-30T15:39:12.820Z,18.63
2019-03-30T15:41:42.915Z,18.07
2019-03-30T15:44:14.537Z,18.20
2019-03-30T15:46:45.286Z,18.30
2019-03-30T15:49:17.952Z,18.42
2019-03-30T15:51:49.332Z,17.30
2019-03-30T15:54:20.748Z,18.10
2019-03-30T15:56:56.096Z,16.65
2019-03-30T15:59:32.428Z,17.90
2019-03-30T16:02:02.580Z,17.90
2019-03-30T16:04:32.565Z,18.93
2019-03-30T16:07:06.912Z,19.77
2019-03-30T16:09:36.201Z,20.10
2019-03-30T16:12:06.205Z,20.60
2019-03-30T16:14:37.667Z,18.93
2019-03-30T16:17:08.689Z,17.52
2019-03-30T16:19:39.156Z,19.85
2019-03-30T16:22:09.486Z,20.20
2019-03-30T16:24:39.726Z,20.23
2019-03-30T16:27:11.452Z,21.15
2019-03-30T16:29:41.657Z,21.63
2019-03-30T16:32:12.335Z,21.55
2019-03-30T16:34:44.243Z,19.57
2019-03-30T16:37:17.386Z,20.20
2019-03-30T16:39:48.798Z,20.50
2019-03-30T16:42:18.918Z,22.10
2019-03-30T16:44:49.457Z,20.27
2019-03-30T16:47:20.333Z,19.47
2019-03-30T16:49:51.146Z,21.07
2019-03-30T16:52:24.441Z,21.27
2019-03-30T16:54:54.592Z,20.33
2019-03-30T16:57:42.089Z,20.10
2019-03-30T17:00:01.368Z,20.33
2019-03-30T17:02:34.662Z,20.33
2019-03-30T17:05:04.756Z,19.45
2019-03-30T17:07:34.973Z,20.40
2019-03-30T17:10:05.844Z,22.07
2019-03-30T17:12:35.865Z,20.93
2019-03-30T17:15:08.034Z,21.73
2019-03-30T17:17:38.846Z,22.93
2019-03-30T17:20:09.710Z,21.93
2019-03-30T17:23:13.949Z,20.87
2019-03-30T17:29:27.826Z,21.20
2019-03-30T17:32:21.825Z,21.43
2019-03-30T17:35:46.903Z,20.73
2019-03-30T17:38:43.647Z,21.67
2019-03-30T18:14:18.569Z,25.60
2019-03-30T18:16:48.569Z,29.53
2019-03-30T18:19:18.593Z,30.03
2019-03-30T18:21:48.535Z,28.90
2019-03-30T18:24:18.620Z,35.17
2019-03-30T18:26:48.617Z,35.78
2019-03-30T18:29:18.641Z,34.13
2019-03-30T18:31:48.676Z,48.73
2019-03-30T18:34:18.873Z,52.33
2019-03-30T18:36:51.255Z,38.57
2019-03-30T18:39:25.746Z,40.50
2019-03-30T18:42:00.395Z,34.47
2019-03-30T18:44:34.417Z,29.60
2019-03-30T18:47:10.112Z,85.20
2019-03-30T18:49:42.944Z,43.20
2019-03-30T18:52:14.720Z,44.70
2019-03-30T18:54:46.735Z,43.17
2019-03-30T18:57:18.167Z,40.03
2019-03-30T18:59:51.294Z,39.40
2019-03-30T19:02:25.151Z,34.10
2019-03-30T19:04:59.828Z,26.63
2019-03-30T19:07:32.121Z,27.63
2019-03-30T19:10:02.137Z,25.40
2019-03-30T19:12:32.980Z,25.40
2019-03-30T19:15:02.940Z,25.47
2019-03-30T19:17:37.609Z,24.80
2019-03-30T19:20:07.673Z,26.05
2019-03-30T19:22:37.998Z,25.72
2019-03-30T19:25:08.199Z,25.80
2019-03-30T19:27:39.568Z,24.10
2019-03-30T19:30:10.913Z,24.83
2019-03-30T19:32:43.857Z,24.43
2019-03-30T19:35:18.811Z,31.52
2019-03-30T19:37:48.942Z,63.03
2019-03-30T19:40:19.010Z,59.50
2019-03-30T19:42:49.038Z,32.87
2019-03-30T19:45:18.963Z,30.37
2019-03-30T19:47:49.485Z,27.33
2019-03-30T19:50:19.524Z,25.90
2019-03-30T19:52:52.142Z,25.90
2019-03-30T19:55:24.251Z,32.13
2019-03-30T19:57:54.165Z,33.30
2019-03-30T20:00:24.425Z,31.07
2019-03-30T20:02:56.442Z,30.70
2019-03-30T20:05:26.451Z,29.80
2019-03-30T20:08:11.048Z,30.73
2019-03-30T20:10:29.481Z,28.60
2019-03-30T20:13:00.045Z,30.00
2019-03-30T20:15:30.414Z,28.27
2019-03-30T20:18:00.688Z,28.67
2019-03-30T20:20:30.646Z,28.00
2019-03-30T20:23:01.524Z,27.30
2019-03-30T20:25:35.222Z,28.10
2019-03-30T20:28:12.151Z,27.80
2019-03-30T20:30:42.950Z,28.07
2019-03-30T20:33:13.365Z,31.87
2019-03-30T20:35:45.167Z,28.07
2019-03-30T20:38:17.324Z,27.07
2019-03-30T20:40:47.235Z,27.73
2019-03-30T20:43:23.646Z,27.10
2019-03-30T20:45:53.854Z,27.45
2019-03-30T20:48:25.030Z,27.30
2019-03-30T20:50:55.847Z,26.20
2019-03-30T20:53:25.987Z,25.80
2019-03-30T20:56:00.883Z,27.40
2019-03-30T20:58:32.783Z,25.23
2019-03-30T21:01:05.155Z,26.03
2019-03-30T21:03:45.611Z,26.97
2019-03-30T21:06:20.045Z,24.32
2019-03-30T21:08:49.977Z,26.30
2019-03-30T21:11:20.409Z,27.00
2019-03-30T21:13:50.464Z,29.10
2019-03-30T21:16:22.741Z,24.63
2019-03-30T21:18:55.436Z,28.02
2019-03-30T21:21:30.705Z,27.47
2019-03-30T21:24:02.462Z,26.67
2019-03-30T21:26:38.805Z,25.50
2019-03-30T21:29:09.455Z,27.60
2019-03-30T21:31:39.423Z,25.93
2019-03-30T21:34:10.272Z,27.67
2019-03-30T21:36:41.013Z,27.57
2019-03-30T21:39:11.873Z,29.10
2019-03-30T21:41:41.938Z,30.70
2019-03-30T21:44:21.897Z,35.17
2019-03-30T21:46:43.885Z,35.43
2019-03-30T21:49:13.999Z,33.83
2019-03-30T21:51:43.924Z,32.47
2019-03-30T21:54:14.389Z,48.53
2019-03-30T21:56:44.355Z,40.33
2019-03-30T21:59:14.276Z,47.30
2019-03-30T22:01:44.929Z,30.57
2019-03-30T22:04:16.363Z,29.77
2019-03-30T22:06:47.870Z,24.60
2019-03-30T22:09:18.757Z,25.45
2019-03-30T22:11:48.720Z,25.63
2019-03-30T22:14:18.737Z,24.70
2019-03-30T22:16:48.622Z,23.73
2019-03-30T22:19:18.677Z,24.15
2019-03-30T22:21:49.765Z,24.80
2019-03-30T22:24:20.404Z,25.60
2019-03-30T22:26:51.051Z,25.00
2019-03-30T22:29:21.489Z,25.10
2019-03-30T22:31:51.901Z,24.50
2019-03-30T22:34:22.780Z,23.67
2019-03-30T22:36:53.206Z,22.30
2019-03-30T22:39:23.422Z,24.13
2019-03-30T22:41:54.251Z,25.90
2019-03-30T22:44:25.341Z,28.13
2019-03-30T22:46:55.808Z,25.10
2019-03-30T22:49:26.952Z,24.95
2019-03-30T22:51:56.873Z,25.10
2019-03-30T22:54:27.472Z,25.40
2019-03-30T22:56:57.425Z,24.27
2019-03-30T22:59:27.444Z,24.77
2019-03-30T23:02:00.706Z,24.73
2019-03-30T23:04:31.458Z,23.70
2019-03-30T23:07:01.930Z,23.47
2019-03-30T23:09:32.021Z,24.00
2019-03-30T23:12:02.025Z,25.33
2019-03-30T23:14:31.948Z,24.00
2019-03-30T23:17:01.877Z,24.70
2019-03-30T23:19:34.294Z,22.60
2019-03-30T23:22:04.946Z,22.47
2019-03-30T23:24:34.892Z,24.85
2019-03-30T23:27:04.840Z,24.30
2019-03-30T23:29:34.985Z,24.92
2019-03-30T23:32:04.961Z,24.17
2019-03-30T23:34:35.130Z,25.80
2019-03-30T23:37:05.646Z,23.50
2019-03-30T23:39:35.573Z,24.27
2019-03-30T23:42:05.546Z,24.07
2019-03-30T23:44:36.604Z,25.02
2019-03-30T23:47:07.597Z,23.97
2019-03-30T23:49:38.796Z,24.00
2019-03-30T23:52:10.148Z,22.65
2019-03-30T23:54:40.585Z,25.10
2019-03-30T23:57:10.974Z,23.80
2019-03-30T23:59:40.992Z,23.30
